sensor_id;sensor_type;location;lat;lon;timestamp;P1;durP1;ratioP1;P2;durP2;ratioP2
12271;SDS011;6198;51.446;6.698;2023-04-03T00:00:34;31.13;;;23.03;;
12271;SDS011;6198;51.446;6.698;2023-04-03T00:03:00;37.17;;;24.80;;
12271;SDS011;6198;51.446;6.698;2023-04-03T00:05:26;36.80;;;26.47;;
12271;SDS011;6198;51.446;6.698;2023-04-03T00:07:52;37.83;;;26.80;;
12271;SDS011;6198;51.446;6.698;2023-04-03T00:10:18;34.03;;;24.67;;
12271;SDS011;6198;51.446;6.698;2023-04-03T00:12:44;38.57;;;27.43;;
12271;SDS011;6198;51.446;6.698;2023-04-03T00:15:10;39.67;;;26.90;;
12271;SDS011;6198;51.446;6.698;2023-04-03T00:17:36;35.67;;;25.60;;
12271;SDS011;6198;51.446;6.698;2023-04-03T00:20:03;33.43;;;24.17;;
12271;SDS011;6198;51.446;6.698;2023-04-03T00:22:29;34.97;;;24.10;;
12271;SDS011;6198;51.446;6.698;2023-04-03T00:24:55;36.37;;;23.47;;
12271;SDS011;6198;51.446;6.698;2023-04-03T00:27:21;31.67;;;22.23;;
12271;SDS011;6198;51.446;6.698;2023-04-03T00:29:47;31.53;;;20.87;;
12271;SDS011;6198;51.446;6.698;2023-04-03T00:32:13;23.60;;;17.60;;
12271;SDS011;6198;51.446;6.698;2023-04-03T00:34:40;20.77;;;14.80;;
12271;SDS011;6198;51.446;6.698;2023-04-03T00:37:06;23.27;;;16.40;;
12271;SDS011;6198;51.446;6.698;2023-04-03T00:39:32;23.27;;;17.53;;
12271;SDS011;6198;51.446;6.698;2023-04-03T00:41:58;24.13;;;18.13;;
12271;SDS011;6198;51.446;6.698;2023-04-03T00:46:59;20.40;;;15.93;;
12271;SDS011;6198;51.446;6.698;2023-04-03T00:49:25;24.77;;;17.83;;
12271;SDS011;6198;51.446;6.698;2023-04-03T00:51:52;21.83;;;15.97;;
12271;SDS011;6198;51.446;6.698;2023-04-03T00:54:18;20.33;;;15.57;;
12271;SDS011;6198;51.446;6.698;2023-04-03T00:56:44;22.80;;;15.67;;
12271;SDS011;6198;51.446;6.698;2023-04-03T00:59:12;19.43;;;15.57;;
12271;SDS011;6198;51.446;6.698;2023-04-03T01:01:38;17.90;;;15.37;;
12271;SDS011;6198;51.446;6.698;2023-04-03T01:04:05;21.43;;;15.27;;
12271;SDS011;6198;51.446;6.698;2023-04-03T01:06:33;25.73;;;15.67;;
12271;SDS011;6198;51.446;6.698;2023-04-03T01:09:00;18.93;;;16.00;;
12271;SDS011;6198;51.446;6.698;2023-04-03T01:11:26;22.20;;;15.20;;
12271;SDS011;6198;51.446;6.698;2023-04-03T01:13:52;21.90;;;13.93;;
12271;SDS011;6198;51.446;6.698;2023-04-03T01:16:18;17.37;;;13.27;;
12271;SDS011;6198;51.446;6.698;2023-04-03T01:18:44;18.53;;;13.57;;
12271;SDS011;6198;51.446;6.698;2023-04-03T01:26:25;17.70;;;12.33;;
12271;SDS011;6198;51.446;6.698;2023-04-03T01:28:52;18.77;;;11.77;;
12271;SDS011;6198;51.446;6.698;2023-04-03T01:33:44;17.60;;;11.03;;
12271;SDS011;6198;51.446;6.698;2023-04-03T01:36:13;14.00;;;10.40;;
12271;SDS011;6198;51.446;6.698;2023-04-03T01:38:39;17.03;;;9.47;;
12271;SDS011;6198;51.446;6.698;2023-04-03T01:41:05;15.07;;;9.33;;
12271;SDS011;6198;51.446;6.698;2023-04-03T01:43:31;15.27;;;8.27;;
12271;SDS011;6198;51.446;6.698;2023-04-03T01:45:57;11.63;;;7.10;;
12271;SDS011;6198;51.446;6.698;2023-04-03T01:48:23;11.37;;;7.43;;
12271;SDS011;6198;51.446;6.698;2023-04-03T01:50:49;15.63;;;7.97;;
12271;SDS011;6198;51.446;6.698;2023-04-03T01:53:15;13.87;;;7.83;;
12271;SDS011;6198;51.446;6.698;2023-04-03T01:55:41;13.13;;;7.10;;
12271;SDS011;6198;51.446;6.698;2023-04-03T01:58:07;7.77;;;4.90;;
12271;SDS011;6198;51.446;6.698;2023-04-03T02:00:33;8.63;;;5.33;;
12271;SDS011;6198;51.446;6.698;2023-04-03T02:02:59;9.17;;;5.57;;
12271;SDS011;6198;51.446;6.698;2023-04-03T02:05:25;7.40;;;5.23;;
12271;SDS011;6198;51.446;6.698;2023-04-03T02:07:51;9.63;;;5.53;;
12271;SDS011;6198;51.446;6.698;2023-04-03T02:10:17;8.70;;;5.13;;
12271;SDS011;6198;51.446;6.698;2023-04-03T02:12:44;14.60;;;6.00;;
12271;SDS011;6198;51.446;6.698;2023-04-03T02:15:10;11.17;;;5.93;;
12271;SDS011;6198;51.446;6.698;2023-04-03T02:17:36;8.80;;;4.83;;
12271;SDS011;6198;51.446;6.698;2023-04-03T02:20:02;10.63;;;4.93;;
12271;SDS011;6198;51.446;6.698;2023-04-03T02:22:28;13.10;;;5.03;;
12271;SDS011;6198;51.446;6.698;2023-04-03T02:24:54;10.27;;;5.10;;
12271;SDS011;6198;51.446;6.698;2023-04-03T02:27:20;7.67;;;4.80;;
12271;SDS011;6198;51.446;6.698;2023-04-03T02:29:46;9.93;;;5.30;;
12271;SDS011;6198;51.446;6.698;2023-04-03T02:32:12;9.20;;;4.93;;
12271;SDS011;6198;51.446;6.698;2023-04-03T02:34:38;13.20;;;5.37;;
12271;SDS011;6198;51.446;6.698;2023-04-03T02:37:04;9.83;;;5.03;;
12271;SDS011;6198;51.446;6.698;2023-04-03T02:39:30;7.70;;;5.03;;
12271;SDS011;6198;51.446;6.698;2023-04-03T02:41:56;9.87;;;5.07;;
12271;SDS011;6198;51.446;6.698;2023-04-03T02:44:22;8.53;;;4.63;;
12271;SDS011;6198;51.446;6.698;2023-04-03T02:46:48;8.80;;;4.63;;
12271;SDS011;6198;51.446;6.698;2023-04-03T02:49:14;9.20;;;4.40;;
12271;SDS011;6198;51.446;6.698;2023-04-03T02:51:40;9.23;;;4.60;;
12271;SDS011;6198;51.446;6.698;2023-04-03T02:54:07;4.33;;;3.13;;
12271;SDS011;6198;51.446;6.698;2023-04-03T02:56:33;4.00;;;2.50;;
12271;SDS011;6198;51.446;6.698;2023-04-03T02:58:59;6.20;;;3.27;;
12271;SDS011;6198;51.446;6.698;2023-04-03T03:01:25;6.00;;;3.37;;
12271;SDS011;6198;51.446;6.698;2023-04-03T03:03:53;9.57;;;3.57;;
12271;SDS011;6198;51.446;6.698;2023-04-03T03:06:19;7.23;;;3.20;;
12271;SDS011;6198;51.446;6.698;2023-04-03T03:08:45;7.83;;;3.87;;
12271;SDS011;6198;51.446;6.698;2023-04-03T03:11:11;8.03;;;3.30;;
12271;SDS011;6198;51.446;6.698;2023-04-03T03:13:38;7.03;;;4.17;;
12271;SDS011;6198;51.446;6.698;2023-04-03T03:16:04;5.60;;;3.30;;
12271;SDS011;6198;51.446;6.698;2023-04-03T03:18:30;7.10;;;4.13;;
12271;SDS011;6198;51.446;6.698;2023-04-03T03:20:57;5.70;;;3.43;;
12271;SDS011;6198;51.446;6.698;2023-04-03T03:23:24;5.90;;;3.37;;
12271;SDS011;6198;51.446;6.698;2023-04-03T03:25:54;7.10;;;2.93;;
12271;SDS011;6198;51.446;6.698;2023-04-03T03:28:21;11.70;;;3.87;;
12271;SDS011;6198;51.446;6.698;2023-04-03T03:30:47;10.23;;;3.97;;
12271;SDS011;6198;51.446;6.698;2023-04-03T03:33:13;8.97;;;3.67;;
12271;SDS011;6198;51.446;6.698;2023-04-03T03:35:39;5.80;;;2.70;;
12271;SDS011;6198;51.446;6.698;2023-04-03T03:38:05;6.87;;;3.93;;
12271;SDS011;6198;51.446;6.698;2023-04-03T03:40:31;9.80;;;3.20;;
12271;SDS011;6198;51.446;6.698;2023-04-03T03:42:57;10.13;;;3.47;;
12271;SDS011;6198;51.446;6.698;2023-04-03T03:45:23;8.33;;;3.37;;
12271;SDS011;6198;51.446;6.698;2023-04-03T03:47:50;4.37;;;2.40;;
12271;SDS011;6198;51.446;6.698;2023-04-03T03:50:16;6.90;;;2.97;;
12271;SDS011;6198;51.446;6.698;2023-04-03T03:52:41;6.50;;;2.43;;
12271;SDS011;6198;51.446;6.698;2023-04-03T03:55:07;5.47;;;3.30;;
12271;SDS011;6198;51.446;6.698;2023-04-03T03:57:33;6.73;;;2.37;;
12271;SDS011;6198;51.446;6.698;2023-04-03T04:00:00;5.23;;;2.90;;
12271;SDS011;6198;51.446;6.698;2023-04-03T04:02:25;5.20;;;2.80;;
12271;SDS011;6198;51.446;6.698;2023-04-03T04:04:52;3.97;;;2.70;;
12271;SDS011;6198;51.446;6.698;2023-04-03T04:07:18;7.40;;;2.93;;
12271;SDS011;6198;51.446;6.698;2023-04-03T04:09:43;6.20;;;2.87;;
12271;SDS011;6198;51.446;6.698;2023-04-03T04:12:10;6.57;;;3.37;;
12271;SDS011;6198;51.446;6.698;2023-04-03T04:14:35;6.43;;;3.07;;
12271;SDS011;6198;51.446;6.698;2023-04-03T04:17:01;5.60;;;2.83;;
12271;SDS011;6198;51.446;6.698;2023-04-03T04:19:28;8.20;;;2.77;;
12271;SDS011;6198;51.446;6.698;2023-04-03T04:21:54;5.00;;;2.63;;
12271;SDS011;6198;51.446;6.698;2023-04-03T04:24:19;10.03;;;2.93;;
12271;SDS011;6198;51.446;6.698;2023-04-03T04:26:47;4.70;;;2.73;;
12271;SDS011;6198;51.446;6.698;2023-04-03T04:29:13;4.07;;;2.57;;
12271;SDS011;6198;51.446;6.698;2023-04-03T04:31:39;5.83;;;2.97;;
12271;SDS011;6198;51.446;6.698;2023-04-03T04:34:05;4.53;;;2.63;;
12271;SDS011;6198;51.446;6.698;2023-04-03T04:36:31;8.00;;;3.13;;
12271;SDS011;6198;51.446;6.698;2023-04-03T04:38:57;10.60;;;3.43;;
12271;SDS011;6198;51.446;6.698;2023-04-03T04:41:23;7.90;;;1.97;;
12271;SDS011;6198;51.446;6.698;2023-04-03T04:43:49;5.20;;;2.60;;
12271;SDS011;6198;51.446;6.698;2023-04-03T04:46:16;8.93;;;3.20;;
12271;SDS011;6198;51.446;6.698;2023-04-03T04:48:42;7.83;;;3.53;;
12271;SDS011;6198;51.446;6.698;2023-04-03T04:51:08;5.87;;;3.10;;
12271;SDS011;6198;51.446;6.698;2023-04-03T04:53:35;6.13;;;3.87;;
12271;SDS011;6198;51.446;6.698;2023-04-03T04:56:01;9.73;;;4.50;;
12271;SDS011;6198;51.446;6.698;2023-04-03T04:58:27;9.20;;;4.40;;
12271;SDS011;6198;51.446;6.698;2023-04-03T05:00:59;6.13;;;3.40;;
12271;SDS011;6198;51.446;6.698;2023-04-03T05:03:25;9.40;;;4.03;;
12271;SDS011;6198;51.446;6.698;2023-04-03T05:05:51;10.50;;;3.13;;
12271;SDS011;6198;51.446;6.698;2023-04-03T05:08:17;8.33;;;3.60;;
12271;SDS011;6198;51.446;6.698;2023-04-03T05:10:44;7.63;;;3.53;;
12271;SDS011;6198;51.446;6.698;2023-04-03T05:13:10;13.07;;;4.43;;
12271;SDS011;6198;51.446;6.698;2023-04-03T05:15:36;5.87;;;2.77;;
12271;SDS011;6198;51.446;6.698;2023-04-03T05:18:02;6.03;;;2.47;;
12271;SDS011;6198;51.446;6.698;2023-04-03T05:20:29;6.57;;;3.07;;
12271;SDS011;6198;51.446;6.698;2023-04-03T05:22:55;10.33;;;3.80;;
12271;SDS011;6198;51.446;6.698;2023-04-03T05:25:21;6.70;;;3.27;;
12271;SDS011;6198;51.446;6.698;2023-04-03T05:27:47;9.57;;;3.30;;
12271;SDS011;6198;51.446;6.698;2023-04-03T05:30:13;5.57;;;2.93;;
12271;SDS011;6198;51.446;6.698;2023-04-03T05:32:39;8.17;;;2.77;;
12271;SDS011;6198;51.446;6.698;2023-04-03T05:35:06;8.10;;;3.60;;
12271;SDS011;6198;51.446;6.698;2023-04-03T05:37:32;8.83;;;3.40;;
12271;SDS011;6198;51.446;6.698;2023-04-03T05:39:58;7.47;;;4.13;;
12271;SDS011;6198;51.446;6.698;2023-04-03T05:42:24;5.50;;;3.20;;
12271;SDS011;6198;51.446;6.698;2023-04-03T05:44:50;5.77;;;2.97;;
12271;SDS011;6198;51.446;6.698;2023-04-03T05:47:17;4.80;;;2.90;;
12271;SDS011;6198;51.446;6.698;2023-04-03T05:49:43;7.97;;;3.43;;
12271;SDS011;6198;51.446;6.698;2023-04-03T05:52:23;7.63;;;2.50;;
12271;SDS011;6198;51.446;6.698;2023-04-03T05:54:51;12.03;;;3.50;;
12271;SDS011;6198;51.446;6.698;2023-04-03T05:57:17;6.77;;;2.53;;
12271;SDS011;6198;51.446;6.698;2023-04-03T05:59:43;4.83;;;2.13;;
12271;SDS011;6198;51.446;6.698;2023-04-03T06:02:11;4.03;;;2.03;;
12271;SDS011;6198;51.446;6.698;2023-04-03T06:04:37;4.03;;;2.17;;
12271;SDS011;6198;51.446;6.698;2023-04-03T06:07:03;5.77;;;2.73;;
12271;SDS011;6198;51.446;6.698;2023-04-03T06:09:29;4.30;;;2.23;;
12271;SDS011;6198;51.446;6.698;2023-04-03T06:11:55;3.77;;;2.33;;
12271;SDS011;6198;51.446;6.698;2023-04-03T06:14:23;7.83;;;3.00;;
12271;SDS011;6198;51.446;6.698;2023-04-03T06:16:49;5.83;;;2.33;;
12271;SDS011;6198;51.446;6.698;2023-04-03T06:19:15;5.90;;;3.00;;
12271;SDS011;6198;51.446;6.698;2023-04-03T06:21:41;7.73;;;2.37;;
12271;SDS011;6198;51.446;6.698;2023-04-03T06:24:07;7.47;;;2.93;;
12271;SDS011;6198;51.446;6.698;2023-04-03T06:26:34;4.47;;;2.10;;
12271;SDS011;6198;51.446;6.698;2023-04-03T06:29:00;5.57;;;2.80;;
12271;SDS011;6198;51.446;6.698;2023-04-03T06:31:27;8.20;;;2.30;;
12271;SDS011;6198;51.446;6.698;2023-04-03T06:33:53;3.10;;;2.00;;
12271;SDS011;6198;51.446;6.698;2023-04-03T06:36:19;3.87;;;2.40;;
12271;SDS011;6198;51.446;6.698;2023-04-03T06:38:46;9.10;;;3.07;;
12271;SDS011;6198;51.446;6.698;2023-04-03T06:41:12;6.17;;;2.43;;
12271;SDS011;6198;51.446;6.698;2023-04-03T06:43:38;4.80;;;2.53;;
12271;SDS011;6198;51.446;6.698;2023-04-03T06:46:04;7.20;;;2.70;;
12271;SDS011;6198;51.446;6.698;2023-04-03T06:48:30;2.80;;;2.43;;
12271;SDS011;6198;51.446;6.698;2023-04-03T06:50:56;7.33;;;2.83;;
12271;SDS011;6198;51.446;6.698;2023-04-03T06:53:22;8.67;;;2.83;;
12271;SDS011;6198;51.446;6.698;2023-04-03T06:55:48;3.60;;;2.23;;
12271;SDS011;6198;51.446;6.698;2023-04-03T06:58:15;5.60;;;2.43;;
12271;SDS011;6198;51.446;6.698;2023-04-03T07:00:42;10.37;;;3.40;;
12271;SDS011;6198;51.446;6.698;2023-04-03T07:03:08;7.23;;;2.30;;
12271;SDS011;6198;51.446;6.698;2023-04-03T07:05:34;8.03;;;2.53;;
12271;SDS011;6198;51.446;6.698;2023-04-03T07:08:00;9.07;;;2.70;;
12271;SDS011;6198;51.446;6.698;2023-04-03T07:10:26;11.00;;;2.93;;
12271;SDS011;6198;51.446;6.698;2023-04-03T07:12:52;3.57;;;1.97;;
12271;SDS011;6198;51.446;6.698;2023-04-03T07:15:18;5.27;;;2.63;;
12271;SDS011;6198;51.446;6.698;2023-04-03T07:17:44;6.30;;;2.57;;
12271;SDS011;6198;51.446;6.698;2023-04-03T07:20:10;4.93;;;2.90;;
12271;SDS011;6198;51.446;6.698;2023-04-03T07:22:37;5.83;;;2.63;;
12271;SDS011;6198;51.446;6.698;2023-04-03T07:25:03;8.90;;;3.00;;
12271;SDS011;6198;51.446;6.698;2023-04-03T07:27:31;4.37;;;3.00;;
12271;SDS011;6198;51.446;6.698;2023-04-03T07:29:57;6.00;;;2.40;;
12271;SDS011;6198;51.446;6.698;2023-04-03T07:32:23;4.67;;;3.17;;
12271;SDS011;6198;51.446;6.698;2023-04-03T07:34:49;6.27;;;3.20;;
12271;SDS011;6198;51.446;6.698;2023-04-03T07:37:15;7.13;;;2.97;;
12271;SDS011;6198;51.446;6.698;2023-04-03T07:39:45;6.60;;;2.93;;
12271;SDS011;6198;51.446;6.698;2023-04-03T07:42:11;5.30;;;3.30;;
12271;SDS011;6198;51.446;6.698;2023-04-03T07:44:38;7.10;;;2.27;;
12271;SDS011;6198;51.446;6.698;2023-04-03T07:47:04;6.87;;;2.87;;
12271;SDS011;6198;51.446;6.698;2023-04-03T07:49:30;6.00;;;2.13;;
12271;SDS011;6198;51.446;6.698;2023-04-03T07:51:57;7.77;;;1.60;;
12271;SDS011;6198;51.446;6.698;2023-04-03T07:54:23;6.90;;;2.87;;
12271;SDS011;6198;51.446;6.698;2023-04-03T07:56:49;6.67;;;2.60;;
12271;SDS011;6198;51.446;6.698;2023-04-03T07:59:15;9.40;;;2.73;;
12271;SDS011;6198;51.446;6.698;2023-04-03T08:01:41;6.80;;;2.80;;
12271;SDS011;6198;51.446;6.698;2023-04-03T08:04:07;4.90;;;2.73;;
12271;SDS011;6198;51.446;6.698;2023-04-03T08:06:33;8.27;;;2.73;;
12271;SDS011;6198;51.446;6.698;2023-04-03T08:09:01;7.40;;;2.83;;
12271;SDS011;6198;51.446;6.698;2023-04-03T08:11:28;9.90;;;2.87;;
12271;SDS011;6198;51.446;6.698;2023-04-03T08:13:55;3.80;;;2.50;;
12271;SDS011;6198;51.446;6.698;2023-04-03T08:16:22;5.27;;;1.90;;
12271;SDS011;6198;51.446;6.698;2023-04-03T08:18:51;7.40;;;2.20;;
12271;SDS011;6198;51.446;6.698;2023-04-03T08:21:17;5.97;;;2.23;;
12271;SDS011;6198;51.446;6.698;2023-04-03T08:23:43;6.33;;;2.70;;
12271;SDS011;6198;51.446;6.698;2023-04-03T08:26:10;3.13;;;2.37;;
12271;SDS011;6198;51.446;6.698;2023-04-03T08:28:36;8.00;;;3.47;;
12271;SDS011;6198;51.446;6.698;2023-04-03T08:31:03;4.30;;;2.07;;
12271;SDS011;6198;51.446;6.698;2023-04-03T08:33:30;7.20;;;3.27;;
12271;SDS011;6198;51.446;6.698;2023-04-03T08:35:56;4.67;;;2.50;;
12271;SDS011;6198;51.446;6.698;2023-04-03T08:38:22;3.37;;;2.20;;
12271;SDS011;6198;51.446;6.698;2023-04-03T08:40:59;1.93;;;1.70;;
12271;SDS011;6198;51.446;6.698;2023-04-03T08:43:41;3.40;;;2.27;;
12271;SDS011;6198;51.446;6.698;2023-04-03T08:46:10;3.33;;;2.03;;
12271;SDS011;6198;51.446;6.698;2023-04-03T08:48:39;7.47;;;2.30;;
12271;SDS011;6198;51.446;6.698;2023-04-03T08:51:12;3.77;;;2.33;;
12271;SDS011;6198;51.446;6.698;2023-04-03T08:53:41;6.30;;;2.03;;
12271;SDS011;6198;51.446;6.698;2023-04-03T08:56:08;11.20;;;2.50;;
12271;SDS011;6198;51.446;6.698;2023-04-03T08:58:46;3.10;;;2.10;;
12271;SDS011;6198;51.446;6.698;2023-04-03T09:01:17;7.30;;;1.90;;
12271;SDS011;6198;51.446;6.698;2023-04-03T09:03:45;3.20;;;1.60;;
12271;SDS011;6198;51.446;6.698;2023-04-03T09:06:15;5.90;;;2.57;;
12271;SDS011;6198;51.446;6.698;2023-04-03T09:08:58;2.60;;;2.13;;
12271;SDS011;6198;51.446;6.698;2023-04-03T09:11:33;1.70;;;1.37;;
12271;SDS011;6198;51.446;6.698;2023-04-03T09:16:56;4.77;;;1.80;;
12271;SDS011;6198;51.446;6.698;2023-04-03T09:19:47;2.40;;;1.80;;
12271;SDS011;6198;51.446;6.698;2023-04-03T09:22:12;1.50;;;1.40;;
12271;SDS011;6198;51.446;6.698;2023-04-03T09:24:40;7.10;;;2.20;;
12271;SDS011;6198;51.446;6.698;2023-04-03T09:27:08;5.37;;;2.10;;
12271;SDS011;6198;51.446;6.698;2023-04-03T09:29:35;3.33;;;1.47;;
12271;SDS011;6198;51.446;6.698;2023-04-03T09:32:11;6.57;;;2.07;;
12271;SDS011;6198;51.446;6.698;2023-04-03T09:34:43;1.77;;;1.63;;
12271;SDS011;6198;51.446;6.698;2023-04-03T09:37:10;7.13;;;1.90;;
12271;SDS011;6198;51.446;6.698;2023-04-03T09:39:56;6.03;;;1.83;;
12271;SDS011;6198;51.446;6.698;2023-04-03T09:42:22;3.60;;;1.80;;
12271;SDS011;6198;51.446;6.698;2023-04-03T09:44:56;4.77;;;1.83;;
12271;SDS011;6198;51.446;6.698;2023-04-03T09:52:42;3.57;;;1.60;;
12271;SDS011;6198;51.446;6.698;2023-04-03T09:57:40;4.93;;;2.10;;
12271;SDS011;6198;51.446;6.698;2023-04-03T10:00:10;3.07;;;2.00;;
12271;SDS011;6198;51.446;6.698;2023-04-03T10:02:44;5.97;;;1.93;;
12271;SDS011;6198;51.446;6.698;2023-04-03T10:10:36;1.50;;;1.30;;
12271;SDS011;6198;51.446;6.698;2023-04-03T10:13:24;2.60;;;1.73;;
12271;SDS011;6198;51.446;6.698;2023-04-03T10:15:56;7.20;;;2.20;;
12271;SDS011;6198;51.446;6.698;2023-04-03T10:21:06;2.57;;;1.60;;
12271;SDS011;6198;51.446;6.698;2023-04-03T10:23:38;1.60;;;1.40;;
12271;SDS011;6198;51.446;6.698;2023-04-03T10:26:14;3.57;;;1.20;;
12271;SDS011;6198;51.446;6.698;2023-04-03T10:28:53;2.50;;;1.50;;
12271;SDS011;6198;51.446;6.698;2023-04-03T10:31:25;1.83;;;1.40;;
12271;SDS011;6198;51.446;6.698;2023-04-03T10:36:50;1.73;;;1.23;;
12271;SDS011;6198;51.446;6.698;2023-04-03T10:39:23;1.20;;;1.10;;
12271;SDS011;6198;51.446;6.698;2023-04-03T10:47:10;3.20;;;1.47;;
12271;SDS011;6198;51.446;6.698;2023-04-03T10:49:45;2.37;;;1.40;;
12271;SDS011;6198;51.446;6.698;2023-04-03T10:54:54;4.30;;;1.70;;
12271;SDS011;6198;51.446;6.698;2023-04-03T10:57:22;3.03;;;1.50;;
12271;SDS011;6198;51.446;6.698;2023-04-03T10:59:50;3.40;;;1.60;;
12271;SDS011;6198;51.446;6.698;2023-04-03T11:04:51;2.67;;;1.30;;
12271;SDS011;6198;51.446;6.698;2023-04-03T11:07:20;3.30;;;1.50;;
12271;SDS011;6198;51.446;6.698;2023-04-03T11:09:48;3.53;;;1.83;;
12271;SDS011;6198;51.446;6.698;2023-04-03T11:12:21;5.33;;;1.53;;
12271;SDS011;6198;51.446;6.698;2023-04-03T11:14:49;5.57;;;1.77;;
12271;SDS011;6198;51.446;6.698;2023-04-03T11:24:34;3.10;;;1.60;;
12271;SDS011;6198;51.446;6.698;2023-04-03T11:27:01;3.60;;;1.90;;
12271;SDS011;6198;51.446;6.698;2023-04-03T11:29:34;4.13;;;1.40;;
12271;SDS011;6198;51.446;6.698;2023-04-03T11:34:47;4.77;;;1.70;;
12271;SDS011;6198;51.446;6.698;2023-04-03T11:37:17;4.97;;;2.20;;
12271;SDS011;6198;51.446;6.698;2023-04-03T11:40:29;2.73;;;2.00;;
12271;SDS011;6198;51.446;6.698;2023-04-03T11:42:39;4.30;;;1.60;;
12271;SDS011;6198;51.446;6.698;2023-04-03T11:45:15;2.37;;;1.80;;
12271;SDS011;6198;51.446;6.698;2023-04-03T11:47:49;3.53;;;1.40;;
12271;SDS011;6198;51.446;6.698;2023-04-03T12:16:05;2.07;;;1.83;;
12271;SDS011;6198;51.446;6.698;2023-04-03T12:21:08;1.53;;;1.30;;
12271;SDS011;6198;51.446;6.698;2023-04-03T12:23:34;4.20;;;1.90;;
12271;SDS011;6198;51.446;6.698;2023-04-03T12:26:05;5.77;;;2.03;;
12271;SDS011;6198;51.446;6.698;2023-04-03T12:28:38;4.50;;;2.07;;
12271;SDS011;6198;51.446;6.698;2023-04-03T12:31:05;4.53;;;1.93;;
12271;SDS011;6198;51.446;6.698;2023-04-03T12:36:11;2.73;;;1.60;;
12271;SDS011;6198;51.446;6.698;2023-04-03T12:38:49;8.37;;;1.90;;
12271;SDS011;6198;51.446;6.698;2023-04-03T12:41:27;3.23;;;1.97;;
12271;SDS011;6198;51.446;6.698;2023-04-03T12:46:26;3.30;;;1.93;;
12271;SDS011;6198;51.446;6.698;2023-04-03T12:48:55;3.47;;;2.20;;
12271;SDS011;6198;51.446;6.698;2023-04-03T12:51:26;5.90;;;1.60;;
12271;SDS011;6198;51.446;6.698;2023-04-03T12:53:56;2.43;;;1.70;;
12271;SDS011;6198;51.446;6.698;2023-04-03T12:56:29;2.53;;;1.50;;
12271;SDS011;6198;51.446;6.698;2023-04-03T12:59:12;2.17;;;1.37;;
12271;SDS011;6198;51.446;6.698;2023-04-03T13:01:39;3.60;;;1.80;;
12271;SDS011;6198;51.446;6.698;2023-04-03T13:04:05;2.10;;;1.60;;
12271;SDS011;6198;51.446;6.698;2023-04-03T13:06:41;4.60;;;1.83;;
12271;SDS011;6198;51.446;6.698;2023-04-03T13:09:27;2.13;;;1.30;;
12271;SDS011;6198;51.446;6.698;2023-04-03T13:12:01;2.70;;;1.60;;
12271;SDS011;6198;51.446;6.698;2023-04-03T13:14:28;2.73;;;1.60;;
12271;SDS011;6198;51.446;6.698;2023-04-03T13:16:59;4.63;;;2.27;;
12271;SDS011;6198;51.446;6.698;2023-04-03T13:19:26;5.27;;;2.50;;
12271;SDS011;6198;51.446;6.698;2023-04-03T13:21:56;3.73;;;2.03;;
12271;SDS011;6198;51.446;6.698;2023-04-03T13:24:23;4.73;;;1.87;;
12271;SDS011;6198;51.446;6.698;2023-04-03T13:26:50;5.10;;;1.83;;
12271;SDS011;6198;51.446;6.698;2023-04-03T13:29:26;2.50;;;1.57;;
12271;SDS011;6198;51.446;6.698;2023-04-03T13:31:53;2.47;;;1.63;;
12271;SDS011;6198;51.446;6.698;2023-04-03T13:34:20;3.37;;;1.80;;
12271;SDS011;6198;51.446;6.698;2023-04-03T13:41:43;3.23;;;1.97;;
12271;SDS011;6198;51.446;6.698;2023-04-03T13:46:52;6.23;;;1.60;;
12271;SDS011;6198;51.446;6.698;2023-04-03T13:51:44;5.47;;;2.27;;
12271;SDS011;6198;51.446;6.698;2023-04-03T13:54:22;1.40;;;1.30;;
12271;SDS011;6198;51.446;6.698;2023-04-03T13:56:54;4.57;;;2.07;;
12271;SDS011;6198;51.446;6.698;2023-04-03T13:59:27;2.20;;;1.67;;
12271;SDS011;6198;51.446;6.698;2023-04-03T14:06:54;3.27;;;1.50;;
12271;SDS011;6198;51.446;6.698;2023-04-03T14:09:21;2.23;;;1.27;;
12271;SDS011;6198;51.446;6.698;2023-04-03T14:11:48;4.73;;;1.90;;
12271;SDS011;6198;51.446;6.698;2023-04-03T14:14:17;2.77;;;1.37;;
12271;SDS011;6198;51.446;6.698;2023-04-03T14:16:45;2.80;;;1.60;;
12271;SDS011;6198;51.446;6.698;2023-04-03T14:19:20;2.03;;;1.40;;
12271;SDS011;6198;51.446;6.698;2023-04-03T14:21:46;3.37;;;1.93;;
12271;SDS011;6198;51.446;6.698;2023-04-03T14:24:13;1.63;;;1.20;;
12271;SDS011;6198;51.446;6.698;2023-04-03T14:26:39;3.53;;;1.20;;
12271;SDS011;6198;51.446;6.698;2023-04-03T14:29:05;1.30;;;1.20;;
12271;SDS011;6198;51.446;6.698;2023-04-03T14:31:31;2.23;;;1.43;;
12271;SDS011;6198;51.446;6.698;2023-04-03T14:33:57;2.20;;;1.27;;
12271;SDS011;6198;51.446;6.698;2023-04-03T14:36:24;2.50;;;1.50;;
12271;SDS011;6198;51.446;6.698;2023-04-03T14:38:51;2.67;;;1.67;;
12271;SDS011;6198;51.446;6.698;2023-04-03T14:41:19;2.60;;;1.40;;
12271;SDS011;6198;51.446;6.698;2023-04-03T14:43:45;1.70;;;1.47;;
12271;SDS011;6198;51.446;6.698;2023-04-03T14:46:31;2.37;;;1.90;;
12271;SDS011;6198;51.446;6.698;2023-04-03T14:48:58;2.00;;;1.13;;
12271;SDS011;6198;51.446;6.698;2023-04-03T14:51:24;1.93;;;1.70;;
12271;SDS011;6198;51.446;6.698;2023-04-03T14:53:51;2.13;;;1.80;;
12271;SDS011;6198;51.446;6.698;2023-04-03T14:56:18;5.40;;;1.87;;
12271;SDS011;6198;51.446;6.698;2023-04-03T14:58:46;2.37;;;1.57;;
12271;SDS011;6198;51.446;6.698;2023-04-03T15:01:15;4.60;;;1.77;;
12271;SDS011;6198;51.446;6.698;2023-04-03T15:03:41;3.40;;;1.60;;
12271;SDS011;6198;51.446;6.698;2023-04-03T15:06:08;4.03;;;1.67;;
12271;SDS011;6198;51.446;6.698;2023-04-03T15:08:34;2.50;;;1.60;;
12271;SDS011;6198;51.446;6.698;2023-04-03T15:11:01;1.80;;;1.43;;
12271;SDS011;6198;51.446;6.698;2023-04-03T15:13:27;1.97;;;1.50;;
12271;SDS011;6198;51.446;6.698;2023-04-03T15:15:52;2.43;;;1.70;;
12271;SDS011;6198;51.446;6.698;2023-04-03T15:18:22;4.73;;;2.13;;
12271;SDS011;6198;51.446;6.698;2023-04-03T15:20:51;2.80;;;1.87;;
12271;SDS011;6198;51.446;6.698;2023-04-03T15:23:17;5.07;;;2.37;;
12271;SDS011;6198;51.446;6.698;2023-04-03T15:25:43;5.33;;;1.77;;
12271;SDS011;6198;51.446;6.698;2023-04-03T15:28:22;2.73;;;1.73;;
12271;SDS011;6198;51.446;6.698;2023-04-03T15:30:49;1.87;;;1.47;;
12271;SDS011;6198;51.446;6.698;2023-04-03T15:33:15;1.90;;;1.40;;
12271;SDS011;6198;51.446;6.698;2023-04-03T15:35:41;2.07;;;1.43;;
12271;SDS011;6198;51.446;6.698;2023-04-03T15:38:08;2.97;;;1.70;;
12271;SDS011;6198;51.446;6.698;2023-04-03T15:40:34;2.17;;;1.70;;
12271;SDS011;6198;51.446;6.698;2023-04-03T15:43:00;5.13;;;2.20;;
12271;SDS011;6198;51.446;6.698;2023-04-03T15:45:28;5.00;;;2.40;;
12271;SDS011;6198;51.446;6.698;2023-04-03T15:47:54;5.03;;;1.80;;
12271;SDS011;6198;51.446;6.698;2023-04-03T15:50:20;2.77;;;1.30;;
12271;SDS011;6198;51.446;6.698;2023-04-03T15:52:48;1.57;;;1.47;;
12271;SDS011;6198;51.446;6.698;2023-04-03T15:55:18;4.33;;;1.83;;
12271;SDS011;6198;51.446;6.698;2023-04-03T15:57:44;4.30;;;1.90;;
12271;SDS011;6198;51.446;6.698;2023-04-03T16:00:10;2.43;;;1.53;;
12271;SDS011;6198;51.446;6.698;2023-04-03T16:02:37;2.90;;;1.67;;
12271;SDS011;6198;51.446;6.698;2023-04-03T16:05:03;3.90;;;2.00;;
12271;SDS011;6198;51.446;6.698;2023-04-03T16:07:29;2.93;;;1.77;;
12271;SDS011;6198;51.446;6.698;2023-04-03T16:09:55;1.50;;;1.30;;
12271;SDS011;6198;51.446;6.698;2023-04-03T16:12:21;2.73;;;1.73;;
12271;SDS011;6198;51.446;6.698;2023-04-03T16:14:47;2.57;;;1.80;;
12271;SDS011;6198;51.446;6.698;2023-04-03T16:17:13;3.53;;;1.87;;
12271;SDS011;6198;51.446;6.698;2023-04-03T16:19:39;11.20;;;2.13;;
12271;SDS011;6198;51.446;6.698;2023-04-03T16:22:05;4.47;;;2.03;;
12271;SDS011;6198;51.446;6.698;2023-04-03T16:24:31;3.20;;;1.40;;
12271;SDS011;6198;51.446;6.698;2023-04-03T16:26:57;3.43;;;1.97;;
12271;SDS011;6198;51.446;6.698;2023-04-03T16:29:23;5.03;;;2.00;;
12271;SDS011;6198;51.446;6.698;2023-04-03T16:31:49;3.47;;;1.90;;
12271;SDS011;6198;51.446;6.698;2023-04-03T16:34:16;2.87;;;1.90;;
12271;SDS011;6198;51.446;6.698;2023-04-03T16:36:42;8.97;;;2.20;;
12271;SDS011;6198;51.446;6.698;2023-04-03T16:39:08;6.63;;;2.57;;
12271;SDS011;6198;51.446;6.698;2023-04-03T16:41:35;6.40;;;3.13;;